Skip to content

GuitarMania

탕고 안 스까이 바이 로랑디앙  

저도 대세에 동참하기위해 올려봅니다

Tango en skai

take1이지만 귀찮아서 그냥 올릴게요
녹음음질은 죄송

---------------------------------------------------

폭탄만 설치 해 놓고 시험 치느라 관리를 안했습니다. 죄송합니다.
딱 들어봐도 제가 새내기였다는건 바로 아셨을텐데요
그냥 기타매니아 들어오면서 올려보고는 싶었는데 ㅋ 그러면 안되면서도 이놈의 장난기때문에..
그냥 친구게시판에 폭탄을 설치했습니다

일단 제 소개를 하자면....
전 그냥 대학생이고요ㅋ 기타와는 전혀 관련이 없는 과에 다니고 있습니다.
기타를 처음 잡은건 중학교때였는데 두달배우고 카르카시 깔짝대다가 그만 다녔습니다.
대학올라와서 그냥 기타가 치고 싶어서 기타동아리들었는데
삘받아서 친건 작년부터 입니다.
그러니 이제야 본격적으로 기타를 친게 만 1년가까이 되는군요

여기 활동하시는 샨 님 이 제 친구 입니다. (이건 자랑입니다. 하하)
작년 겨울때쯤 샨님이랑 LAGQ 꽃의 왈츠 2파트 쳤는데 완전 허접했습니다.
제 허접합을 들어보셔도 좋습니다. 아마 친구게시판에 있을거 같군요 ㅋ

동아리에서 기타를 가르쳐 주시는 선생님이 계시는데
기타를 한 곡 치더라도 제대로 치려면
자다가도 벌떡 일어나서 칠수 있어야 한다더군요.
그게 진짜 자신의 실력이라고 할 수 있다는 겁니다...ㄷㄷ
그래서 또 장난기가 발생한 저는
이 글을 올린난 처음으로 탱고엔스카이를 녹음 해 보았습니다.
분명 저는 자다가 일어나서 쳤습니다..
아니나 다를까 실수 투성이에..
윙윙거리는 전자파소리 까지 ㅋ
나중에 들어보니 조율도 좀 한심하더군요

그래도 그냥 이건 저의 영혼의 밑바닥까지 보여주는 그러한 연주이기에 올려보았습니다
다음에는 이런 장난 치지 않을게요
이 곡 곧 있을 연주회에 올려야 할 곡인데 윗분들의 조언 좀 부탁드립니다 ㅠㅜ

이젠 새내기 연주나 찜질방에서 조율이 잘 된!! 상태에서 만나보아요
그럼 오늘 하루도 즐타 하시길 ~  
Comment '8'
  • 소품 2007.08.26 23:14 (*.47.110.69)
    여유와 속도 참 좋군요~~
    리듬감이 부럽슴다~
  • 콩쥐 2007.08.27 09:11 (*.80.25.49)
    일년만에 이런표현하시다니 정말 멋진분이시네요....
    샨님이랑 중주도 하실수있고 넘 좋으시겟다..
  • 샤콘느1004 2007.08.27 18:34 (*.216.43.27)
    리듬감 좋습니다. 저는 이곡이 왜일케 어려운지
    자신있게 치지못해서 그런거같습니다.
  • buyho 2007.08.28 00:14 (*.175.45.106)
    소품님은 저번에 조율안됐을때도 댓글남겨주신거 같은데ㅋ 고맙습니다
    사실 여유는 별로 없고 속도는 좀 내려고 연습하는데 항상 2분 40초를 약간 웃도네요
    그리고 리듬감이라... 사실 박자감각이 많이 모자라서 많이 들어본게 도움이 된거 같습니다
  • buyho 2007.08.28 00:19 (*.175.45.106)
    콩쥐님도 안녕하세요 ㅋ
    말씀드렸듯이 1년만이라고 하기엔 좀 그렇네요
    작년 추석쯤인가 이성준씨가 티비에 나와서 탱고엔 스카이 치시는거 보고 빠져버려서
    그때부터 마음먹고 연습한 곡이라 탱고엔 스카이만 10명이상의 프로연주를 본거 같에요
    샨님도 정말 기타 잘 치시죠 ㅋ
    오늘도 우리 학교 오셔서 망고레 왈츠 4번 치고 가셨다는 ㄷㄷ 조만간 친구음악듣기에 뜰지도 모르겠군요
    제 욕심에는 요번 겨울 샨님과 사실 중주한번 하고 싶은 마음도 있다는....
  • buyho 2007.08.28 00:22 (*.175.45.106)
    샤콘느님도 안녕하세요 ㅋㅋ
    정말 이 곡 은 빠져들수록 난해한 곡인거 같습니다
    셋잇단음과 정박의 조화 그리고 알수 없는 여섯잇단음 부분은 제 눈을 씻고 봐도 4/4박자가 될수 없는 부분이 있던데요 ㅋ 뭐 그냥 귀가먼저 익숙해 지는 바람에 박자는 쉽게 접근 할 수 있었던거 같네요
    사실.... 제 연주를 들어보시면 아시겠지만 제 연주는 여러 연주자들의 짜집기에 불과합니다 ㅋ
    샤콘느님도 멋진 연주 많이 올려주시던데 멋지십니다 기대할게요 ㅋ
  • 아이모레스 2007.08.29 23:19 (*.158.13.154)
    참 부럽습니다... 동아리 친구들 있어 부럽구... 기타를 얼마 치지 않았다면서도 이렇게 잘 치시니 부럽구... 잠 자다가 일어나서 치는데두 아름다운 음악을 만들어 내시니 부럽구... 딱 한번 쳐서 이만큼 완성도 높은 연주를 할 수 있음도...... 그리고 또...... 셀 수 없이 많군요!!!^^

    이제 지금까지도 이랬으니 앞으로 더욱 더 기대가 됩니다~~~ 연주 한마디로 매우 싱싱하고 건강합니당!!!!^^ 부효님 좀 더 자주 연주 올려주세요!!!
  • buyho 2007.09.02 10:10 (*.175.45.106)
    안녕하세요 아이모레스님 ㅋㅋ 저는 부효가 아니라 '바이호' 입니다
    이 글 올리기 전에 자다가 일어난 곡 올렸었는데 그 글은 지웠고요
    지금 이 곡은 자다가 일어나서 친곡은 아니에요ㅠ

    싱싱하고 건강하다는 말.. 기타를 많이 못쳐봐서 그런 거겠죠 ㅋㅋ
    전 레퍼토리가 적어서 다음 곡은 언제 올릴지 미지수 입니다. 노력해볼게요
?

List of Articles
번호 제목 글쓴이 날짜 조회 수
1841 Love Affair 6 2007.06.02 20403
1840 zapateado///rodrigo 13 김은미 2007.06.03 25881
1839 최후의 트레몰로 (리버브효과없는겁니다..;;) 4 file JoDaC 2007.06.09 20584
1838 최후의 트레몰로 입니다 ^^ 32 file JoDaC 2007.06.06 24996
1837 전설 11 file 최병욱 2007.06.06 24934
1836 I believe 13 file orpheus15 2007.06.08 20476
1835 Romance.3번. 10 file 우체국가는길 2007.06.08 25186
1834 Kiss the Rain 이루마 곡 (기타 연주) 44 file 아이모레스 2007.06.12 28243
1833 오 솔레미오 4 file 밀롱가. 2007.06.14 22778
1832 Recuerdos de la Alhambra -F. Tarrega 12 file Jason 2007.06.15 25116
1831 알함브라 다시녹음했습니다~ 14 file 최병욱 2007.06.16 23487
1830 [re] 소르 연습곡 6번-리버브를 넣어보았습니다. 1 file niceplace 2007.06.20 23350
1829 소르 연습곡 6번 8 file niceplace 2007.06.17 23365
1828 Romance.3번. 다시 올려요 6 file 우체국가는길 2007.06.17 27496
1827 뱃노래 - 코스트 12 file fernando 2007.06.19 24121
1826 유키구라모토의 Meditation 18 file 최병욱 2007.06.19 25443
1825 fredric hand의 연습곡 1번 4 file 루하기 2007.06.21 17197
1824 리브라소나티네 3.Fuoco-롤랑디용 27 file MSGr 2007.06.21 29867
1823 바흐 샤콘느 10 file 좁은길로 2007.06.26 25166
1822 쉘부르의 우산 3 file nice guy 2007.06.27 24319
1821 Koyunbaba - C. Domeniconi 25 file 진느 2007.06.27 21339
1820 F. Tarrega,Capricho Arabe 33 file Jason 2007.06.28 24031
1819 Agua e Vinho - Egberto Gismonti 18 file limnz 2007.06.29 23546
1818 BWV1006a 프렐류드 3 file 좁은길로 2007.06.29 23151
1817 이노래어떤가요? Pulo do Gato(P.Bellinati) 15 file MSGr 2007.07.01 28347
1816 L'HYMNE A L'AMOUR / E.PIAF 24 file April 2007.07.04 22611
1815 Kleine Romanze- L. Walker 10 file Jason 2007.07.05 22213
1814 Triste Santuario by Vincent Gomez-슬픈 예배당 17 file Jason 2007.07.05 26010
1813 대성당1악장 8 file 좁은길로 2007.07.05 21625
1812 이루마의 When the love falls 7 file 최병욱 2007.07.07 45245
1811 종소리 12 file 좁은길로 2007.07.07 25057
1810 소르의 마적입니다... 19 file 화가 2007.07.08 29714
1809 brahms-theme and variations 20 file 기타레타 2007.07.09 31337
1808 [영상] 엘레지 Elegie (메르츠 Mertz) 3 2007.07.09 24304
1807 이병우 - 달려 18 file 김상욱 2007.07.09 23430
1806 대성당2악장 4 file 좁은길로 2007.07.09 32901
1805 도적의 노래-ibach 연주 16 file 바하의꿈 2007.07.10 24373
1804 하프시 팟사 완주--! 4 file 좁은길로 2007.07.10 23030
1803 핑거스타일- Sun dance (Kotaro Oshio) 7 file 최병욱 2007.07.11 26853
1802 Giuliani-- Rossiniana No.1 (글로빌 아트홀 실황연주) 15 file LDH 2007.07.11 20011
1801 엔커리지먼트-소르 39 file 기타레타 2007.07.11 24175
1800 이 곡 제목이 뭔가요? 3 file -_ - 2007.07.12 20746
1799 헨델의 아리아 23 file 아이모레스 2007.07.12 24111
1798 G선상의 아리아 - J.S.BACH 43 file 기타레타 2007.07.13 24962
1797 이루마의 Kiss the Rain 6 file 최병욱 2007.07.13 24672
1796 Pierre Bensusan - 아도니스의 정원 12 file 찬찬 2007.07.14 25984
1795 Bach - BWV1007 Prelude & Allemande 16 file 김상욱 2007.07.14 23494
1794 Wonderful tonight 43 file - 情 - 2007.07.14 26681
1793 Variation on Theme of Mozart - F.Sor 32 file Jason 2007.07.15 24777
1792 월량대표아적심(月亮代表我的心) 29 이진성 2007.07.19 26656
1791 Fantasia Arabe by Sabicas 22 file Jason 2007.07.22 20432
1790 샤콘느 뒤에뒤부분 7 file 좁은길로 2007.07.23 21100
1789 유키 구라모토의 Lake Louise(새로운 편곡) 17 file 최병욱 2007.07.23 24367
1788 Aria no.1 - F. Kleynjans 11 file bradpitt 2007.07.24 24249
1787 Septiembre (Maximo Diego Pujol) 21 file 라일 2007.07.26 22923
1786 (이중주) Green Sleeves 20 file niceplace 2007.07.27 26396
1785 BWV1006a Prelude 7 file 좁은길로 2007.07.27 26541
1784 A. Piazzolla Quattro Stagioni (부에노스아이레스의 사계) 1. Primavera portend (봄) 8 file sgq 2007.07.27 24226
1783 A. Piazzolla Oblivion(망각) 3 file sgq 2007.07.27 23791
1782 A. Piazzolla Liebertango 1 file sgq 2007.07.27 24818
1781 P. Bellinati Baiao de Gude 서울기타콰르텟 4 file sgq 2007.07.27 24785
1780 사람이 꽃보다 아름다워~~~ 4 야매 2007.07.28 25002
1779 Fur Elise by L. Van Beethoven 62 file Jason 2007.07.28 28699
1778 부탁 김효석 2007.07.29 20083
1777 클레이앙스-로망스1번(이중주) 6 file 기타레타 2007.07.30 20993
1776 Lamento No.2 / F. Kleynjans 12 file 이진성 2007.08.01 22065
1775 The old rugged cross by G. Bennard 10 file Jason 2007.08.02 23514
1774 로망스 no.1(이중주)-끌레앙 16 file 체르니 2007.08.04 33243
1773 Sleeprs, Awake! 눈뜨라부르는소리있어 7 file 좁은길로 2007.08.05 21542
1772 Estudio No.12 / F. Sor 13 file 이진성 2007.08.06 24109
1771 Partners in Praise / 안신영님 편곡 10 file orpheus15 2007.08.07 21076
1770 알베니즈-야자나무 아래에서 13 file 기타레타 2007.08.08 30059
1769 로드리고 // 고풍스런 티엔토 30 file 진느 2007.08.08 26690
1768 Sor Etude#6 10 file 밀롱가. 2007.08.10 21746
1767 Classical Gas/Mason Williams -클래식컬 개스 23 file Jason 2007.08.10 24177
1766 Adelita 2 file sky600 2007.08.12 16252
1765 maria luisa 6 file sky600 2007.08.12 25864
1764 sunflower 14 file 한사랑 2007.08.13 22568
1763 Tango En Skai 11 file 좁은길로 2007.08.13 25505
1762 바흐 // Choral from cantata147 arr.David Russell 31 file 진느 2007.08.14 22169
1761 milonga 6 file 2007.08.15 23361
1760 [동영상] Barrios - Una Limosna por el amor de Dios (최후의 트레몰로) 39 file 김상욱 2007.08.17 29261
1759 텅 빈 놀이터 II by devilous 9 file devilous 2007.08.20 22019
1758 Sleepers, Awake! from Cantata BWV140 9 file April 2007.08.20 21986
1757 Yuichi Watanabe - Morning Dew 5 file 2007.08.21 25607
1756 Falla--ThreeCorneredHat(KimMoonHyung & Chung Sehee) 7 file 바하의꿈 2007.08.21 26588
1755 망고레의 Contemplacion (깊은 그리움) 24 file 아이모레스 2007.08.22 24228
1754 헨델의 대장간변주?^^ Handel--Blacksmith Variations 19 file 바하의꿈 2007.08.23 25534
1753 F. Sor의 인커리지먼트 18 file 바하의꿈 2007.08.24 26330
1752 알함브라궁전의 추억 12 file 정면 2007.08.24 22964
» 죄송한! 탕고 안 스까이 바이 로랑디앙 (조율 맞춰 재업)ㅠ 8 file buyho 2007.08.26 18200
1750 Stairway to Heaven, Classical/Unplugged version 기악 독주 7 file 2007.08.28 26965
1749 Les Feuilles Mortes (고엽) - Joseph Kosma 20 file 고정석 2007.08.29 23143
1748 Beautiful Dreamer(토스토) 7 file 까치 2007.08.30 24861
1747 줄리아니 기타협주곡 5 file buyho 2007.09.04 22200
1746 가을편지 / 안형수 편곡 15 file orpheus15 2007.09.04 24297
1745 녹음은 어떻게 하나요? 2 소르초이 2007.09.05 21313
1744 TOmmy Emmanuel-Angelina 10 file 좁은길로 2007.09.05 20513
1743 내마음의 보석상자(동영상) 7 야매 2007.09.07 25953
1742 Venus(동영상) 4 야매 2007.09.07 28801
Board Pagination ‹ Prev 1 ... 11 12 13 14 15 16 17 18 19 20 21 22 23 24 25 26 27 28 29 30 ... 39 Next ›
/ 39

나눔글꼴 설치 안내


이 PC에는 나눔글꼴이 설치되어 있지 않습니다.

이 사이트를 나눔글꼴로 보기 위해서는
나눔글꼴을 설치해야 합니다.

설치 취소

Designed by sketchbooks.co.kr / sketchbook5 board skin

Sketchbook5, 스케치북5

Sketchbook5, 스케치북5

Sketchbook5, 스케치북5

Sketchbook5, 스케치북5

Powered by Xpress Engine / Designed by hikaru100

abcXYZ, 세종대왕,1234

abcXYZ, 세종대왕,1234